sensor_id;sensor_type;location;lat;lon;timestamp;pressure;altitude;pressure_sealevel;temperature;humidity
41862;BME280;27537;57.134;-2.136;2023-05-03T00:00:55;102133.97;;;7.73;100.00
41862;BME280;27537;57.134;-2.136;2023-05-03T00:03:25;102163.47;;;7.86;100.00
41862;BME280;27537;57.134;-2.136;2023-05-03T00:05:52;102215.56;;;8.12;100.00
41862;BME280;27537;57.134;-2.136;2023-05-03T00:08:19;102147.88;;;7.76;100.00
41862;BME280;27537;57.134;-2.136;2023-05-03T00:10:47;102174.72;;;8.00;100.00
41862;BME280;27537;57.134;-2.136;2023-05-03T00:13:13;102120.09;;;7.68;100.00
41862;BME280;27537;57.134;-2.136;2023-05-03T00:15:40;102161.72;;;7.91;100.00
41862;BME280;27537;57.134;-2.136;2023-05-03T00:18:07;102155.66;;;7.86;100.00
41862;BME280;27537;57.134;-2.136;2023-05-03T00:20:34;102159.16;;;7.78;100.00
41862;BME280;27537;57.134;-2.136;2023-05-03T00:23:01;102155.69;;;7.73;100.00
41862;BME280;27537;57.134;-2.136;2023-05-03T00:25:27;102127.09;;;7.56;100.00
41862;BME280;27537;57.134;-2.136;2023-05-03T00:27:54;102080.28;;;7.22;100.00
41862;BME280;27537;57.134;-2.136;2023-05-03T00:30:21;102127.06;;;7.59;100.00
41862;BME280;27537;57.134;-2.136;2023-05-03T00:32:47;102167.91;;;7.65;100.00
41862;BME280;27537;57.134;-2.136;2023-05-03T00:35:14;102164.44;;;7.60;100.00
41862;BME280;27537;57.134;-2.136;2023-05-03T00:37:41;102159.22;;;7.57;100.00
41862;BME280;27537;57.134;-2.136;2023-05-03T00:40:08;102125.41;;;7.37;100.00
41862;BME280;27537;57.134;-2.136;2023-05-03T00:42:35;102132.34;;;7.41;100.00
41862;BME280;27537;57.134;-2.136;2023-05-03T00:45:02;102154.00;;;7.54;100.00
41862;BME280;27537;57.134;-2.136;2023-05-03T00:47:32;102155.72;;;7.63;100.00
41862;BME280;27537;57.134;-2.136;2023-05-03T00:49:59;102158.34;;;7.61;100.00
41862;BME280;27537;57.134;-2.136;2023-05-03T00:52:27;102125.38;;;7.45;100.00
41862;BME280;27537;57.134;-2.136;2023-05-03T00:54:56;102157.47;;;7.57;100.00
41862;BME280;27537;57.134;-2.136;2023-05-03T00:57:24;102133.22;;;7.32;100.00
41862;BME280;27537;57.134;-2.136;2023-05-03T00:59:52;102201.78;;;7.68;100.00
41862;BME280;27537;57.134;-2.136;2023-05-03T01:02:19;102180.06;;;7.55;100.00
41862;BME280;27537;57.134;-2.136;2023-05-03T01:04:47;102150.56;;;7.41;100.00
41862;BME280;27537;57.134;-2.136;2023-05-03T01:10:16;102197.47;;;7.58;100.00
41862;BME280;27537;57.134;-2.136;2023-05-03T01:18:20;102132.34;;;7.30;100.00
41862;BME280;27537;57.134;-2.136;2023-05-03T01:20:48;102181.81;;;7.50;100.00
41862;BME280;27537;57.134;-2.136;2023-05-03T01:23:39;102191.38;;;7.59;100.00
41862;BME280;27537;57.134;-2.136;2023-05-03T01:28:46;102142.78;;;7.29;100.00
41862;BME280;27537;57.134;-2.136;2023-05-03T01:31:32;102184.41;;;7.63;100.00
41862;BME280;27537;57.134;-2.136;2023-05-03T01:34:13;102110.66;;;7.11;100.00
41862;BME280;27537;57.134;-2.136;2023-05-03T01:36:44;102143.63;;;7.31;100.00
41862;BME280;27537;57.134;-2.136;2023-05-03T01:39:17;102190.53;;;7.45;100.00
41862;BME280;27537;57.134;-2.136;2023-05-03T01:41:45;102134.97;;;7.12;100.00
41862;BME280;27537;57.134;-2.136;2023-05-03T01:44:15;102115.91;;;7.07;100.00
41862;BME280;27537;57.134;-2.136;2023-05-03T01:46:43;102172.31;;;7.38;100.00
41862;BME280;27537;57.134;-2.136;2023-05-03T01:49:11;102143.66;;;7.23;100.00
41862;BME280;27537;57.134;-2.136;2023-05-03T01:51:38;102119.38;;;6.99;100.00
41862;BME280;27537;57.134;-2.136;2023-05-03T01:54:05;102112.41;;;7.04;100.00
41862;BME280;27537;57.134;-2.136;2023-05-03T01:56:33;102140.19;;;7.10;100.00
41862;BME280;27537;57.134;-2.136;2023-05-03T01:59:00;102118.50;;;7.02;100.00
41862;BME280;27537;57.134;-2.136;2023-05-03T02:01:27;102122.84;;;6.98;100.00
41862;BME280;27537;57.134;-2.136;2023-05-03T02:03:53;102156.69;;;7.23;100.00
41862;BME280;27537;57.134;-2.136;2023-05-03T02:06:20;102089.00;;;6.84;100.00
41862;BME280;27537;57.134;-2.136;2023-05-03T02:08:47;102189.69;;;7.35;100.00
41862;BME280;27537;57.134;-2.136;2023-05-03T02:11:13;102181.00;;;7.28;100.00
41862;BME280;27537;57.134;-2.136;2023-05-03T02:13:40;102143.69;;;7.01;100.00
41862;BME280;27537;57.134;-2.136;2023-05-03T02:16:07;102124.59;;;6.98;100.00
41862;BME280;27537;57.134;-2.136;2023-05-03T02:18:35;102127.16;;;6.92;100.00
41862;BME280;27537;57.134;-2.136;2023-05-03T02:21:03;102154.09;;;7.03;100.00
41862;BME280;27537;57.134;-2.136;2023-05-03T02:23:30;102154.09;;;7.11;100.00
41862;BME280;27537;57.134;-2.136;2023-05-03T02:25:57;102091.59;;;6.81;100.00
41862;BME280;27537;57.134;-2.136;2023-05-03T02:28:23;102101.13;;;6.81;100.00
41862;BME280;27537;57.134;-2.136;2023-05-03T02:30:50;102124.59;;;6.99;100.00
41862;BME280;27537;57.134;-2.136;2023-05-03T02:33:17;102124.56;;;7.04;100.00
41862;BME280;27537;57.134;-2.136;2023-05-03T02:35:44;102150.59;;;7.26;100.00
41862;BME280;27537;57.134;-2.136;2023-05-03T02:38:10;102093.31;;;6.92;100.00
41862;BME280;27537;57.134;-2.136;2023-05-03T02:40:37;102097.66;;;6.99;100.00
41862;BME280;27537;57.134;-2.136;2023-05-03T02:43:04;102115.00;;;7.18;100.00
41862;BME280;27537;57.134;-2.136;2023-05-03T02:45:30;102079.44;;;6.94;100.00
41862;BME280;27537;57.134;-2.136;2023-05-03T02:47:57;102103.72;;;7.13;100.00
41862;BME280;27537;57.134;-2.136;2023-05-03T02:50:25;102158.41;;;7.46;100.00
41862;BME280;27537;57.134;-2.136;2023-05-03T02:52:51;102074.22;;;6.99;100.00
41862;BME280;27537;57.134;-2.136;2023-05-03T02:55:18;102059.50;;;6.86;100.00
41862;BME280;27537;57.134;-2.136;2023-05-03T02:57:45;102075.09;;;6.98;100.00
41862;BME280;27537;57.134;-2.136;2023-05-03T03:00:12;102104.63;;;7.01;100.00
41862;BME280;27537;57.134;-2.136;2023-05-03T03:02:40;102127.16;;;7.12;100.00
41862;BME280;27537;57.134;-2.136;2023-05-03T03:05:07;102077.72;;;6.59;100.00
41862;BME280;27537;57.134;-2.136;2023-05-03T03:07:36;102147.16;;;7.05;100.00
41862;BME280;27537;57.134;-2.136;2023-05-03T03:10:05;102149.75;;;6.88;100.00
41862;BME280;27537;57.134;-2.136;2023-05-03T03:12:36;102134.97;;;6.70;100.00
41862;BME280;27537;57.134;-2.136;2023-05-03T03:15:04;102078.56;;;6.37;100.00
41862;BME280;27537;57.134;-2.136;2023-05-03T03:17:30;102064.66;;;6.21;100.00
41862;BME280;27537;57.134;-2.136;2023-05-03T03:19:57;102099.41;;;6.61;100.00
41862;BME280;27537;57.134;-2.136;2023-05-03T03:22:24;102067.28;;;6.41;100.00
41862;BME280;27537;57.134;-2.136;2023-05-03T03:24:51;102142.78;;;6.73;100.00
41862;BME280;27537;57.134;-2.136;2023-05-03T03:27:17;102106.31;;;6.33;100.00
41862;BME280;27537;57.134;-2.136;2023-05-03T03:29:44;102089.81;;;6.39;100.00
41862;BME280;27537;57.134;-2.136;2023-05-03T03:32:11;102100.25;;;6.45;100.00
41862;BME280;27537;57.134;-2.136;2023-05-03T03:34:38;102108.97;;;6.62;100.00
41862;BME280;27537;57.134;-2.136;2023-05-03T03:37:04;102077.69;;;6.55;100.00
41862;BME280;27537;57.134;-2.136;2023-05-03T03:39:31;102089.88;;;6.57;100.00
41862;BME280;27537;57.134;-2.136;2023-05-03T03:41:58;102106.34;;;6.65;100.00
41862;BME280;27537;57.134;-2.136;2023-05-03T03:44:25;102071.63;;;6.56;100.00
41862;BME280;27537;57.134;-2.136;2023-05-03T03:46:52;102125.44;;;6.98;100.00
41862;BME280;27537;57.134;-2.136;2023-05-03T03:49:19;102060.38;;;6.55;100.00
41862;BME280;27537;57.134;-2.136;2023-05-03T03:51:45;102100.28;;;6.76;100.00
41862;BME280;27537;57.134;-2.136;2023-05-03T03:54:13;102118.47;;;6.85;100.00
41862;BME280;27537;57.134;-2.136;2023-05-03T03:56:39;102068.16;;;6.61;100.00
41862;BME280;27537;57.134;-2.136;2023-05-03T03:59:06;102075.97;;;6.74;100.00
41862;BME280;27537;57.134;-2.136;2023-05-03T04:01:33;102092.47;;;6.79;100.00
41862;BME280;27537;57.134;-2.136;2023-05-03T04:04:00;102096.81;;;6.89;100.00
41862;BME280;27537;57.134;-2.136;2023-05-03T04:06:27;102075.97;;;6.77;100.00
41862;BME280;27537;57.134;-2.136;2023-05-03T04:08:54;102088.13;;;6.86;100.00
41862;BME280;27537;57.134;-2.136;2023-05-03T04:11:21;102114.16;;;6.90;100.00
41862;BME280;27537;57.134;-2.136;2023-05-03T04:13:47;102111.56;;;6.81;100.00
41862;BME280;27537;57.134;-2.136;2023-05-03T04:16:14;102089.00;;;6.75;100.00
41862;BME280;27537;57.134;-2.136;2023-05-03T04:18:42;102131.50;;;7.03;100.00
41862;BME280;27537;57.134;-2.136;2023-05-03T04:21:09;102108.94;;;7.01;100.00
41862;BME280;27537;57.134;-2.136;2023-05-03T04:23:36;102074.25;;;6.71;100.00
41862;BME280;27537;57.134;-2.136;2023-05-03T04:26:02;102154.09;;;7.26;100.00
41862;BME280;27537;57.134;-2.136;2023-05-03T04:28:30;102062.97;;;6.86;100.00
41862;BME280;27537;57.134;-2.136;2023-05-03T04:30:58;102124.53;;;7.30;100.00
41862;BME280;27537;57.134;-2.136;2023-05-03T04:33:24;102088.09;;;7.12;100.00
41862;BME280;27537;57.134;-2.136;2023-05-03T04:35:52;102104.56;;;7.23;100.00
41862;BME280;27537;57.134;-2.136;2023-05-03T04:38:19;102084.59;;;7.20;100.00
41862;BME280;27537;57.134;-2.136;2023-05-03T04:40:46;102120.16;;;7.46;100.00
41862;BME280;27537;57.134;-2.136;2023-05-03T04:43:12;102140.97;;;7.62;100.00
41862;BME280;27537;57.134;-2.136;2023-05-03T04:45:39;102137.47;;;7.63;100.00
41862;BME280;27537;57.134;-2.136;2023-05-03T04:48:07;102130.53;;;7.66;100.00
41862;BME280;27537;57.134;-2.136;2023-05-03T04:50:34;102150.44;;;7.86;100.00
41862;BME280;27537;57.134;-2.136;2023-05-03T04:53:01;102137.44;;;7.81;100.00
41862;BME280;27537;57.134;-2.136;2023-05-03T04:55:28;102074.97;;;7.49;100.00
41862;BME280;27537;57.134;-2.136;2023-05-03T04:57:55;102153.91;;;7.91;100.00
41862;BME280;27537;57.134;-2.136;2023-05-03T05:00:22;102153.00;;;7.99;100.00
41862;BME280;27537;57.134;-2.136;2023-05-03T05:02:49;102081.00;;;7.66;100.00
41862;BME280;27537;57.134;-2.136;2023-05-03T05:05:16;102080.94;;;7.78;100.00
41862;BME280;27537;57.134;-2.136;2023-05-03T05:07:45;102112.97;;;8.04;100.00
41862;BME280;27537;57.134;-2.136;2023-05-03T05:10:12;102088.66;;;8.02;100.00
41862;BME280;27537;57.134;-2.136;2023-05-03T05:12:40;102115.50;;;8.19;100.00
41862;BME280;27537;57.134;-2.136;2023-05-03T05:15:07;102151.03;;;8.48;100.00
41862;BME280;27537;57.134;-2.136;2023-05-03T05:17:34;102112.84;;;8.30;100.00
41862;BME280;27537;57.134;-2.136;2023-05-03T05:20:02;102174.38;;;8.74;100.00
41862;BME280;27537;57.134;-2.136;2023-05-03T05:22:30;102123.34;;;8.22;100.00
41862;BME280;27537;57.134;-2.136;2023-05-03T05:24:57;102107.66;;;8.24;100.00
41862;BME280;27537;57.134;-2.136;2023-05-03T05:27:24;102097.16;;;8.33;100.00
41862;BME280;27537;57.134;-2.136;2023-05-03T05:29:52;102107.56;;;8.44;100.00
41862;BME280;27537;57.134;-2.136;2023-05-03T05:32:19;102121.41;;;8.55;100.00
41862;BME280;27537;57.134;-2.136;2023-05-03T05:34:45;102122.22;;;8.63;100.00
41862;BME280;27537;57.134;-2.136;2023-05-03T05:37:18;102102.28;;;8.54;100.00
41862;BME280;27537;57.134;-2.136;2023-05-03T05:39:45;102113.53;;;8.64;100.00
41862;BME280;27537;57.134;-2.136;2023-05-03T05:42:12;102120.47;;;8.64;100.00
41862;BME280;27537;57.134;-2.136;2023-05-03T05:44:38;102129.09;;;8.77;100.00
41862;BME280;27537;57.134;-2.136;2023-05-03T05:47:05;102136.84;;;8.87;100.00
41862;BME280;27537;57.134;-2.136;2023-05-03T05:49:34;102151.59;;;8.93;100.00
41862;BME280;27537;57.134;-2.136;2023-05-03T05:52:01;102172.31;;;9.15;100.00
41862;BME280;27537;57.134;-2.136;2023-05-03T05:54:28;102103.78;;;8.85;100.00
41862;BME280;27537;57.134;-2.136;2023-05-03T05:56:56;102126.41;;;8.89;100.00
41862;BME280;27537;57.134;-2.136;2023-05-03T05:59:23;102140.13;;;9.08;100.00
41862;BME280;27537;57.134;-2.136;2023-05-03T06:01:50;102177.28;;;9.44;100.00
41862;BME280;27537;57.134;-2.136;2023-05-03T06:04:17;102145.09;;;9.39;100.00
41862;BME280;27537;57.134;-2.136;2023-05-03T06:06:43;102131.44;;;9.10;100.00
41862;BME280;27537;57.134;-2.136;2023-05-03T06:09:10;102105.34;;;9.04;100.00
41862;BME280;27537;57.134;-2.136;2023-05-03T06:11:50;102100.19;;;8.95;100.00
41862;BME280;27537;57.134;-2.136;2023-05-03T06:14:17;102136.84;;;8.89;100.00
41862;BME280;27537;57.134;-2.136;2023-05-03T06:16:46;102096.94;;;8.68;100.00
41862;BME280;27537;57.134;-2.136;2023-05-03T06:19:13;102151.38;;;9.19;100.00
41862;BME280;27537;57.134;-2.136;2023-05-03T06:21:39;102070.75;;;8.79;100.00
41862;BME280;27537;57.134;-2.136;2023-05-03T06:24:06;102134.13;;;9.00;100.00
41862;BME280;27537;57.134;-2.136;2023-05-03T06:26:33;102099.06;;;9.24;100.00
41862;BME280;27537;57.134;-2.136;2023-05-03T06:29:02;102145.88;;;9.47;100.00
41862;BME280;27537;57.134;-2.136;2023-05-03T06:31:29;102136.25;;;9.49;100.00
41862;BME280;27537;57.134;-2.136;2023-05-03T06:33:56;102119.72;;;9.47;100.00
41862;BME280;27537;57.134;-2.136;2023-05-03T06:36:23;102148.31;;;9.64;100.00
41862;BME280;27537;57.134;-2.136;2023-05-03T06:38:50;102112.94;;;9.29;100.00
41862;BME280;27537;57.134;-2.136;2023-05-03T06:41:17;102063.66;;;8.90;100.00
41862;BME280;27537;57.134;-2.136;2023-05-03T06:43:44;102137.97;;;9.55;100.00
41862;BME280;27537;57.134;-2.136;2023-05-03T06:46:10;102126.41;;;9.73;100.00
41862;BME280;27537;57.134;-2.136;2023-05-03T06:48:38;102073.69;;;9.35;100.00
41862;BME280;27537;57.134;-2.136;2023-05-03T06:51:05;102129.91;;;9.72;100.00
41862;BME280;27537;57.134;-2.136;2023-05-03T06:53:32;102131.53;;;9.80;100.00
41862;BME280;27537;57.134;-2.136;2023-05-03T06:55:59;102109.94;;;9.63;100.00
41862;BME280;27537;57.134;-2.136;2023-05-03T06:58:26;102142.75;;;9.92;100.00
41862;BME280;27537;57.134;-2.136;2023-05-03T07:00:52;102171.44;;;10.01;100.00
41862;BME280;27537;57.134;-2.136;2023-05-03T07:03:19;102119.50;;;9.67;100.00
41862;BME280;27537;57.134;-2.136;2023-05-03T07:05:47;102086.50;;;9.57;100.00
41862;BME280;27537;57.134;-2.136;2023-05-03T07:08:13;102107.47;;;9.50;100.00
41862;BME280;27537;57.134;-2.136;2023-05-03T07:10:40;102080.72;;;9.27;100.00
41862;BME280;27537;57.134;-2.136;2023-05-03T07:13:07;102098.91;;;9.38;100.00
41862;BME280;27537;57.134;-2.136;2023-05-03T07:15:34;102150.78;;;9.76;100.00
41862;BME280;27537;57.134;-2.136;2023-05-03T07:18:02;102155.94;;;9.82;100.00
41862;BME280;27537;57.134;-2.136;2023-05-03T07:20:28;102092.72;;;9.45;100.00
41862;BME280;27537;57.134;-2.136;2023-05-03T07:22:55;102089.25;;;9.46;100.00
41862;BME280;27537;57.134;-2.136;2023-05-03T07:25:23;102096.88;;;9.61;100.00
41862;BME280;27537;57.134;-2.136;2023-05-03T07:27:50;102078.00;;;9.38;100.00
41862;BME280;27537;57.134;-2.136;2023-05-03T07:30:17;102088.47;;;9.38;100.00
41862;BME280;27537;57.134;-2.136;2023-05-03T07:32:44;102087.25;;;9.66;100.00
41862;BME280;27537;57.134;-2.136;2023-05-03T07:35:11;102108.81;;;9.85;100.00
41862;BME280;27537;57.134;-2.136;2023-05-03T07:37:38;102119.63;;;10.24;100.00
41862;BME280;27537;57.134;-2.136;2023-05-03T07:40:05;102121.72;;;10.01;100.00
41862;BME280;27537;57.134;-2.136;2023-05-03T07:42:32;102103.38;;;10.01;100.00
41862;BME280;27537;57.134;-2.136;2023-05-03T07:44:59;102133.81;;;10.08;100.00
41862;BME280;27537;57.134;-2.136;2023-05-03T07:47:26;102121.75;;;9.98;100.00
41862;BME280;27537;57.134;-2.136;2023-05-03T07:49:53;102127.19;;;10.48;100.00
41862;BME280;27537;57.134;-2.136;2023-05-03T07:52:20;102114.66;;;10.07;100.00
41862;BME280;27537;57.134;-2.136;2023-05-03T07:54:47;102108.38;;;10.18;100.00
41862;BME280;27537;57.134;-2.136;2023-05-03T07:57:14;102156.94;;;10.42;100.00
41862;BME280;27537;57.134;-2.136;2023-05-03T07:59:41;102096.25;;;10.11;100.00
41862;BME280;27537;57.134;-2.136;2023-05-03T08:02:08;102127.34;;;10.37;100.00
41862;BME280;27537;57.134;-2.136;2023-05-03T08:04:35;102133.50;;;10.36;100.00
41862;BME280;27537;57.134;-2.136;2023-05-03T08:07:02;102106.72;;;10.12;100.00
41862;BME280;27537;57.134;-2.136;2023-05-03T08:09:29;102114.34;;;10.29;100.00
41862;BME280;27537;57.134;-2.136;2023-05-03T08:11:56;102131.06;;;10.19;100.00
41862;BME280;27537;57.134;-2.136;2023-05-03T08:14:23;102111.66;;;10.34;100.00
41862;BME280;27537;57.134;-2.136;2023-05-03T08:16:50;102116.06;;;10.32;100.00
41862;BME280;27537;57.134;-2.136;2023-05-03T08:19:16;102136.09;;;10.36;100.00
41862;BME280;27537;57.134;-2.136;2023-05-03T08:21:43;102146.66;;;10.26;100.00
41862;BME280;27537;57.134;-2.136;2023-05-03T08:24:12;102163.78;;;10.52;100.00
41862;BME280;27537;57.134;-2.136;2023-05-03T08:26:42;102161.25;;;10.46;100.00
41862;BME280;27537;57.134;-2.136;2023-05-03T08:29:10;102140.19;;;10.55;100.00
41862;BME280;27537;57.134;-2.136;2023-05-03T08:31:37;102110.41;;;10.61;100.00
41862;BME280;27537;57.134;-2.136;2023-05-03T08:34:04;102118.44;;;10.50;100.00
41862;BME280;27537;57.134;-2.136;2023-05-03T08:36:32;102178.00;;;10.95;100.00
41862;BME280;27537;57.134;-2.136;2023-05-03T08:39:01;102142.53;;;10.71;100.00
41862;BME280;27537;57.134;-2.136;2023-05-03T08:41:32;102164.41;;;10.70;100.00
41862;BME280;27537;57.134;-2.136;2023-05-03T08:44:00;102157.28;;;10.78;100.00
41862;BME280;27537;57.134;-2.136;2023-05-03T08:46:27;102182.38;;;10.94;100.00
41862;BME280;27537;57.134;-2.136;2023-05-03T08:48:55;102135.53;;;10.73;100.00
41862;BME280;27537;57.134;-2.136;2023-05-03T08:51:23;102175.84;;;11.17;100.00
41862;BME280;27537;57.134;-2.136;2023-05-03T08:53:50;102181.44;;;10.97;100.00
41862;BME280;27537;57.134;-2.136;2023-05-03T08:56:32;102113.63;;;10.78;100.00
41862;BME280;27537;57.134;-2.136;2023-05-03T08:58:59;102162.91;;;11.09;100.00
41862;BME280;27537;57.134;-2.136;2023-05-03T09:01:35;102179.38;;;11.17;100.00
41862;BME280;27537;57.134;-2.136;2023-05-03T09:04:02;102117.78;;;10.90;100.00
41862;BME280;27537;57.134;-2.136;2023-05-03T09:06:30;102129.91;;;10.96;100.00
41862;BME280;27537;57.134;-2.136;2023-05-03T09:08:59;102142.44;;;11.30;100.00
41862;BME280;27537;57.134;-2.136;2023-05-03T09:11:28;102146.44;;;10.99;100.00
41862;BME280;27537;57.134;-2.136;2023-05-03T09:16:39;102178.06;;;11.42;100.00
41862;BME280;27537;57.134;-2.136;2023-05-03T09:19:07;102122.41;;;11.26;100.00
41862;BME280;27537;57.134;-2.136;2023-05-03T09:21:39;102177.00;;;11.52;100.00
41862;BME280;27537;57.134;-2.136;2023-05-03T09:24:17;102180.59;;;11.46;100.00
41862;BME280;27537;57.134;-2.136;2023-05-03T09:26:46;102183.38;;;11.38;100.00
41862;BME280;27537;57.134;-2.136;2023-05-03T09:29:34;102159.41;;;11.58;100.00
41862;BME280;27537;57.134;-2.136;2023-05-03T09:32:03;102116.31;;;11.24;100.00
41862;BME280;27537;57.134;-2.136;2023-05-03T09:34:32;102162.22;;;11.48;100.00
41862;BME280;27537;57.134;-2.136;2023-05-03T09:36:59;102186.31;;;11.68;100.00
41862;BME280;27537;57.134;-2.136;2023-05-03T09:39:26;102151.38;;;11.66;100.00
41862;BME280;27537;57.134;-2.136;2023-05-03T09:41:53;102137.09;;;11.81;100.00
41862;BME280;27537;57.134;-2.136;2023-05-03T09:44:39;102156.19;;;11.86;100.00
41862;BME280;27537;57.134;-2.136;2023-05-03T09:47:06;102147.69;;;11.75;100.00
41862;BME280;27537;57.134;-2.136;2023-05-03T09:49:33;102134.84;;;12.06;100.00
41862;BME280;27537;57.134;-2.136;2023-05-03T09:52:03;102140.72;;;12.18;100.00
41862;BME280;27537;57.134;-2.136;2023-05-03T09:54:30;102150.91;;;12.31;100.00
41862;BME280;27537;57.134;-2.136;2023-05-03T09:57:03;102148.81;;;12.07;100.00
41862;BME280;27537;57.134;-2.136;2023-05-03T09:59:35;102121.78;;;12.03;100.00
41862;BME280;27537;57.134;-2.136;2023-05-03T10:02:05;102182.97;;;12.85;100.00
41862;BME280;27537;57.134;-2.136;2023-05-03T10:04:45;102185.56;;;12.86;100.00
41862;BME280;27537;57.134;-2.136;2023-05-03T10:07:16;102179.75;;;12.73;100.00
41862;BME280;27537;57.134;-2.136;2023-05-03T10:09:45;102114.81;;;12.41;100.00
41862;BME280;27537;57.134;-2.136;2023-05-03T10:12:13;102175.91;;;12.49;100.00
41862;BME280;27537;57.134;-2.136;2023-05-03T10:14:44;102187.38;;;12.84;100.00
41862;BME280;27537;57.134;-2.136;2023-05-03T10:17:27;102146.16;;;12.08;100.00
41862;BME280;27537;57.134;-2.136;2023-05-03T10:20:36;102194.56;;;12.76;100.00
41862;BME280;27537;57.134;-2.136;2023-05-03T10:25:38;102198.72;;;12.47;100.00
41862;BME280;27537;57.134;-2.136;2023-05-03T10:28:07;102185.00;;;12.34;100.00
41862;BME280;27537;57.134;-2.136;2023-05-03T10:30:38;102146.72;;;12.23;100.00
41862;BME280;27537;57.134;-2.136;2023-05-03T10:35:38;102124.41;;;12.42;100.00
41862;BME280;27537;57.134;-2.136;2023-05-03T10:38:22;102144.28;;;12.90;100.00
41862;BME280;27537;57.134;-2.136;2023-05-03T10:40:50;102152.03;;;13.30;100.00
41862;BME280;27537;57.134;-2.136;2023-05-03T10:45:59;102194.25;;;12.88;100.00
41862;BME280;27537;57.134;-2.136;2023-05-03T10:48:27;102174.44;;;12.75;100.00
41862;BME280;27537;57.134;-2.136;2023-05-03T10:50:55;102190.28;;;13.08;100.00
41862;BME280;27537;57.134;-2.136;2023-05-03T10:53:35;102187.44;;;12.81;100.00
41862;BME280;27537;57.134;-2.136;2023-05-03T10:56:06;102177.63;;;12.88;100.00
41862;BME280;27537;57.134;-2.136;2023-05-03T10:58:46;102160.03;;;12.56;100.00
41862;BME280;27537;57.134;-2.136;2023-05-03T11:01:15;102187.16;;;12.56;100.00
41862;BME280;27537;57.134;-2.136;2023-05-03T11:06:35;102130.06;;;12.99;100.00
41862;BME280;27537;57.134;-2.136;2023-05-03T11:09:04;102151.59;;;12.79;100.00
41862;BME280;27537;57.134;-2.136;2023-05-03T11:11:33;102184.06;;;13.12;100.00
41862;BME280;27537;57.134;-2.136;2023-05-03T11:14:00;102150.66;;;13.50;100.00
41862;BME280;27537;57.134;-2.136;2023-05-03T11:16:27;102139.06;;;13.57;100.00
41862;BME280;27537;57.134;-2.136;2023-05-03T11:18:54;102106.44;;;12.97;100.00
41862;BME280;27537;57.134;-2.136;2023-05-03T11:21:22;102087.44;;;12.86;100.00
41862;BME280;27537;57.134;-2.136;2023-05-03T11:23:48;102127.28;;;13.39;100.00
41862;BME280;27537;57.134;-2.136;2023-05-03T11:26:16;102112.06;;;13.49;100.00
41862;BME280;27537;57.134;-2.136;2023-05-03T11:28:43;102158.59;;;13.80;100.00
41862;BME280;27537;57.134;-2.136;2023-05-03T11:31:11;102148.75;;;13.55;100.00
41862;BME280;27537;57.134;-2.136;2023-05-03T11:33:39;102120.56;;;12.57;100.00
41862;BME280;27537;57.134;-2.136;2023-05-03T11:36:06;102167.72;;;12.99;100.00
41862;BME280;27537;57.134;-2.136;2023-05-03T11:38:37;102091.97;;;12.45;100.00
41862;BME280;27537;57.134;-2.136;2023-05-03T11:41:11;102140.00;;;13.20;100.00
41862;BME280;27537;57.134;-2.136;2023-05-03T11:43:43;102151.53;;;13.49;100.00
41862;BME280;27537;57.134;-2.136;2023-05-03T11:46:10;102157.59;;;13.18;100.00
41862;BME280;27537;57.134;-2.136;2023-05-03T11:48:39;102167.34;;;13.15;100.00
41862;BME280;27537;57.134;-2.136;2023-05-03T11:51:07;102155.53;;;13.64;100.00
41862;BME280;27537;57.134;-2.136;2023-05-03T11:53:38;102153.94;;;13.58;100.00
41862;BME280;27537;57.134;-2.136;2023-05-03T11:56:11;102156.81;;;13.49;100.00
41862;BME280;27537;57.134;-2.136;2023-05-03T11:58:57;102109.19;;;12.93;100.00
41862;BME280;27537;57.134;-2.136;2023-05-03T12:01:28;102117.94;;;12.93;100.00
41862;BME280;27537;57.134;-2.136;2023-05-03T12:03:57;102170.00;;;13.80;100.00
41862;BME280;27537;57.134;-2.136;2023-05-03T12:06:25;102180.69;;;14.05;100.00
41862;BME280;27537;57.134;-2.136;2023-05-03T12:08:53;102112.94;;;13.51;100.00
41862;BME280;27537;57.134;-2.136;2023-05-03T12:11:21;102133.56;;;13.65;100.00
41862;BME280;27537;57.134;-2.136;2023-05-03T12:13:59;102107.66;;;13.17;100.00
41862;BME280;27537;57.134;-2.136;2023-05-03T12:16:28;102118.78;;;13.61;100.00
41862;BME280;27537;57.134;-2.136;2023-05-03T12:19:11;102085.63;;;13.85;100.00
41862;BME280;27537;57.134;-2.136;2023-05-03T12:21:46;102150.19;;;14.27;100.00
41862;BME280;27537;57.134;-2.136;2023-05-03T12:24:33;102114.84;;;14.05;100.00
41862;BME280;27537;57.134;-2.136;2023-05-03T12:27:01;102133.44;;;13.70;100.00
41862;BME280;27537;57.134;-2.136;2023-05-03T12:29:29;102146.63;;;13.99;100.00
41862;BME280;27537;57.134;-2.136;2023-05-03T12:32:00;102109.88;;;13.65;100.00
41862;BME280;27537;57.134;-2.136;2023-05-03T12:34:29;102090.22;;;13.47;100.00
41862;BME280;27537;57.134;-2.136;2023-05-03T12:37:01;102115.44;;;14.43;100.00
41862;BME280;27537;57.134;-2.136;2023-05-03T12:39:32;102142.72;;;14.41;100.00
41862;BME280;27537;57.134;-2.136;2023-05-03T12:41:59;102114.97;;;14.31;100.00
41862;BME280;27537;57.134;-2.136;2023-05-03T12:44:31;102092.97;;;14.03;100.00
41862;BME280;27537;57.134;-2.136;2023-05-03T12:47:01;102121.78;;;13.78;100.00
41862;BME280;27537;57.134;-2.136;2023-05-03T12:49:28;102121.13;;;13.40;100.00
41862;BME280;27537;57.134;-2.136;2023-05-03T12:51:55;102096.00;;;13.90;100.00
41862;BME280;27537;57.134;-2.136;2023-05-03T12:54:28;102140.22;;;14.38;100.00
41862;BME280;27537;57.134;-2.136;2023-05-03T12:57:00;102081.63;;;13.72;100.00
41862;BME280;27537;57.134;-2.136;2023-05-03T12:59:38;102139.06;;;14.18;100.00
41862;BME280;27537;57.134;-2.136;2023-05-03T13:02:11;102126.78;;;13.88;100.00
41862;BME280;27537;57.134;-2.136;2023-05-03T13:04:42;102090.06;;;13.53;100.00
41862;BME280;27537;57.134;-2.136;2023-05-03T13:07:24;102100.78;;;14.07;100.00